Summerland Sweets XC 3K

Back to 2015 XC Races

2015 XC Race

2015-10-04, Summerland, 3.2 km
# Name City Age GP CP Time Pace
1 Braden Kersey Vernon M13-15 0:13:09 04:06
2 Tayla Ingram Summerland F10-12 0:15:22 04:48
3 Connor Berrisford Summerland M10-12 0:15:32 04:51
4 Maximilian Patenaude Summerland M01-09 0:15:33 04:51
5 Alistair Martin Summerland M01-09 4 0:15:34 04:51
6 Doug Gronzil Kaleden M10-12 5 0:15:34 04:51
7 Isaac Bergen Kelowna M10-12 6 0:16:02 05:00
8 Holden Berrisford Summerland M10-12 7 4 0:16:03 05:00
9 Dave Michael Penticton M16-99+ 8 0:16:04 05:01
10 Caitlyn Michael Penticton F10-12 0:16:14 05:04
11 Simon Bergen Kelowna M01-09 9 0:16:15 05:04
12 Arlo Kast Summerland M10-12 10 5 0:16:15 05:04
13 Brooke Lawlor Coldstream F10-12 0:16:15 05:04
14 Holden Girard Summerland M10-12 11 5 0:16:15 05:04
15 Tyler Algar Summerland M10-12 12 7 0:16:35 05:10
16 Daxton Moon Penticton M01-09 13 4 0:16:47 05:14
17 Ryland Wagner Penticton M01-09 14 5 0:16:51 05:15
18 Jason Wagner Penticton M16-99+ 15 0:16:51 05:15
19 Lauryn Peters Penticton F10-12 4 4 0:17:14 05:23
20 Paige Gibbings Summerland F01-09 5 0:17:23 05:25
21 Jack Macintosh Summerland M10-12 16 8 0:17:24 05:26
22 Peter Macintosh Summerland M16-99+ 17 0:17:25 05:26
23 Rupert Haverkamp Summerland M01-09 18 6 0:18:03 05:38
24 Richard Haverkamp Summerland M16-99+ 19 4 0:18:05 05:39
25 Melissa Michels Summerland F16-99+ 6 0:18:14 05:41
26 Rowan Musselman Bell Penticton M01-09 20 7 0:18:32 05:47
27 Trista Algar Summerland F13-15 7 0:19:00 05:56
28 Emma Wagner Penticton F10-12 8 5 0:19:09 05:59
29 Sam Plant Summerland M10-12 21 9 0:19:09 05:59
30 Ashley Quigley Kelowna F01-09 9 0:19:15 06:00
31 Isla Kast Summerland F01-09 10 0:19:16 06:01
32 Fenton Ingram Summerland M16-99+ 22 5 0:19:18 06:01
33 Evan Stirling Penticton M01-09 23 8 0:19:23 06:03
34 Dustin Stirling Penticton M16-99+ 24 6 0:19:23 06:03
35 Noa Rippy Penticton F01-09 11 4 0:20:00 06:15
36 Carmen Harrold Summerland F10-12 12 6 0:20:06 06:16
37 Emily Walton Summerland F10-12 13 7 0:20:16 06:20
38 Hannah Walton Summerland F13-15 14 0:20:16 06:20
39 Logan Borsheim Summerland M01-09 25 9 0:20:23 06:22
40 Paul Sorenson Summerland M16-99+ 26 7 0:20:24 06:22
41 Mackenzie Stevens Summerland F10-12 15 8 0:20:24 06:22
42 Silvie Cormillot Summerland F13-15 16 0:20:24 06:22
43 Gillian Stevens Summerland F16-99+ 17 0:20:24 06:22
44 Cadence Quigley Kelowna F01-09 18 5 0:21:04 06:35
45 Kyden Hurst Penticton M01-09 27 10 0:21:06 06:35
46 Brian Hurst Penticton M16-99+ 28 8 0:21:08 06:36
47 Hayden Bush Kelowna M01-09 29 11 0:21:19 06:39
48 Diana Stirling Penticton F16-99+ 19 0:21:26 06:41
49 Julia Stirling Penticton F01-09 20 6 0:21:26 06:41
50 Jordan Mottershead Penticton M13-15 30 0:21:29 06:42
51 Philomena Gentes Penticton F10-12 21 9 0:21:47 06:48
52 Manon Gentes Penticton F13-15 22 4 0:21:47 06:48
53 Hunter Bush Kelowna M01-09 31 12 0:21:51 06:49
54 Thomas Wilkie Penticton M01-09 32 13 0:22:00 06:52
55 Abigail Jerome Kelowna F10-12 23 10 0:22:05 06:54
56 Hayden Porcellato Penticton F01-09 24 7 0:22:06 06:54
57 Melanie Wilkie Penticton F16-99+ 25 4 0:22:07 06:54
58 Kaelin Urness Kelowna F10-12 26 11 0:22:08 06:55
59 Olivia Harrold Summerland F13-15 27 5 0:22:55 07:09
60 Payton Mitchell Summerland F01-09 28 8 0:23:08 07:13
61 Finley Knowlton Summerland F01-09 29 9 0:23:09 07:14
62 Jenny Mitchell Summerland F16-99+ 30 5 0:23:09 07:14
63 Zoe Plant Summerland F01-09 31 10 0:23:51 07:27
64 Jeff Plant Summerland M16-99+ 33 9 0:23:51 07:27
65 Madeline Macintosh Summerland F13-15 32 6 0:24:07 07:32
66 Ryann Buckingham Summerland F13-15 33 7 0:24:08 07:32
67 Thea Lemare Summerland F13-15 34 8 0:24:12 07:33
68 Chloe Harrold Summerland F13-15 35 8 0:24:12 07:33
69 Emily Mottershead Penticton F10-12 36 12 0:24:13 07:34
70 Violet Porcellato Penticton F01-09 37 11 0:24:27 07:38
71 Sarah Porcellato Penticton F16-99+ 38 6 0:24:27 07:38
72 Jake Ulansky West Kelowna M01-09 34 14 0:24:42 07:43
73 Fiona Girard Summerland F01-09 39 12 0:25:10 07:51
74 Kai Rippy Penticton M01-09 35 15 0:25:22 07:55
75 Olivia Evans Penticton F01-09 40 13 0:25:28 07:57
76 Leah Evans Penticton F01-09 41 14 0:25:29 07:57
77 Ayla Musselman Bell Penticton F01-09 42 15 0:25:30 07:58
78 Van Pratt Penticton M16-99+ 36 10 0:25:31 07:58
79 Danielle Krysa Summerland F16-99+ 43 7 0:25:42 08:01
80 Charlie Krysa Summerland M01-09 37 16 0:25:42 08:01
81 Greg Krysa Summerland M16-99+ 38 11 0:25:43 08:02
82 Taylor Hurst Penticton F01-09 44 16 0:31:41 09:54
83 Ann Hurst Penticton F16-99+ 45 8 0:31:42 09:54
84 Mara Bickell Naramata F01-09 46 17 0:41:12 12:52
85 Fiona Bickell Naramata F16-99+ 47 9 0:41:12 12:52
86 David Bickell Naramata M16-99+ 39 12 0:41:13 12:52
Missing or Incorrect Results